sensor_id;sensor_type;location;lat;lon;timestamp;P1;durP1;ratioP1;P2;durP2;ratioP2
6997;SDS011;3539;47.982;12.238;2024-03-29T00:00:34;2.10;;;1.90;;
6997;SDS011;3539;47.982;12.238;2024-03-29T00:03:00;1.43;;;1.23;;
6997;SDS011;3539;47.982;12.238;2024-03-29T00:05:26;1.80;;;1.63;;
6997;SDS011;3539;47.982;12.238;2024-03-29T00:07:51;3.27;;;2.33;;
6997;SDS011;3539;47.982;12.238;2024-03-29T00:10:17;1.33;;;1.23;;
6997;SDS011;3539;47.982;12.238;2024-03-29T00:12:44;1.53;;;1.37;;
6997;SDS011;3539;47.982;12.238;2024-03-29T00:15:10;5.43;;;1.40;;
6997;SDS011;3539;47.982;12.238;2024-03-29T00:17:36;1.87;;;1.77;;
6997;SDS011;3539;47.982;12.238;2024-03-29T00:20:02;1.80;;;1.57;;
6997;SDS011;3539;47.982;12.238;2024-03-29T00:22:28;2.20;;;1.60;;
6997;SDS011;3539;47.982;12.238;2024-03-29T00:24:54;2.93;;;1.50;;
6997;SDS011;3539;47.982;12.238;2024-03-29T00:27:19;1.50;;;1.33;;
6997;SDS011;3539;47.982;12.238;2024-03-29T00:29:46;1.60;;;1.33;;
6997;SDS011;3539;47.982;12.238;2024-03-29T00:32:12;2.57;;;1.60;;
6997;SDS011;3539;47.982;12.238;2024-03-29T00:34:38;1.63;;;1.53;;
6997;SDS011;3539;47.982;12.238;2024-03-29T00:37:03;1.67;;;1.57;;
6997;SDS011;3539;47.982;12.238;2024-03-29T00:39:29;1.80;;;1.70;;
6997;SDS011;3539;47.982;12.238;2024-03-29T00:41:55;1.90;;;1.70;;
6997;SDS011;3539;47.982;12.238;2024-03-29T00:44:21;2.00;;;1.57;;
6997;SDS011;3539;47.982;12.238;2024-03-29T00:46:48;1.70;;;1.60;;
6997;SDS011;3539;47.982;12.238;2024-03-29T00:49:14;1.77;;;1.27;;
6997;SDS011;3539;47.982;12.238;2024-03-29T00:51:40;1.77;;;1.40;;
6997;SDS011;3539;47.982;12.238;2024-03-29T00:54:06;1.97;;;1.30;;
6997;SDS011;3539;47.982;12.238;2024-03-29T00:56:31;1.97;;;1.50;;
6997;SDS011;3539;47.982;12.238;2024-03-29T00:58:57;1.90;;;1.40;;
6997;SDS011;3539;47.982;12.238;2024-03-29T01:01:23;1.93;;;1.20;;
6997;SDS011;3539;47.982;12.238;2024-03-29T01:03:50;2.13;;;1.60;;
6997;SDS011;3539;47.982;12.238;2024-03-29T01:06:16;2.70;;;1.40;;
6997;SDS011;3539;47.982;12.238;2024-03-29T01:08:42;2.43;;;1.50;;
6997;SDS011;3539;47.982;12.238;2024-03-29T01:11:07;1.60;;;1.50;;
6997;SDS011;3539;47.982;12.238;2024-03-29T01:13:33;1.50;;;1.40;;
6997;SDS011;3539;47.982;12.238;2024-03-29T01:15:59;1.80;;;1.50;;
6997;SDS011;3539;47.982;12.238;2024-03-29T01:18:25;2.20;;;2.00;;
6997;SDS011;3539;47.982;12.238;2024-03-29T01:20:52;3.00;;;1.40;;
6997;SDS011;3539;47.982;12.238;2024-03-29T01:23:17;2.03;;;1.70;;
6997;SDS011;3539;47.982;12.238;2024-03-29T01:25:43;1.80;;;1.47;;
6997;SDS011;3539;47.982;12.238;2024-03-29T01:28:09;2.30;;;2.10;;
6997;SDS011;3539;47.982;12.238;2024-03-29T01:30:35;1.80;;;1.60;;
6997;SDS011;3539;47.982;12.238;2024-03-29T01:33:01;1.70;;;1.33;;
6997;SDS011;3539;47.982;12.238;2024-03-29T01:35:26;1.60;;;1.50;;
6997;SDS011;3539;47.982;12.238;2024-03-29T01:37:54;1.83;;;1.67;;
6997;SDS011;3539;47.982;12.238;2024-03-29T01:40:19;2.03;;;1.43;;
6997;SDS011;3539;47.982;12.238;2024-03-29T01:42:45;1.93;;;1.40;;
6997;SDS011;3539;47.982;12.238;2024-03-29T01:45:11;1.53;;;1.40;;
6997;SDS011;3539;47.982;12.238;2024-03-29T01:47:38;1.87;;;1.50;;
6997;SDS011;3539;47.982;12.238;2024-03-29T01:50:05;3.40;;;1.50;;
6997;SDS011;3539;47.982;12.238;2024-03-29T01:52:32;1.60;;;1.50;;
6997;SDS011;3539;47.982;12.238;2024-03-29T01:55:01;1.63;;;1.53;;
6997;SDS011;3539;47.982;12.238;2024-03-29T01:57:27;2.00;;;1.50;;
6997;SDS011;3539;47.982;12.238;2024-03-29T01:59:54;1.60;;;1.30;;
6997;SDS011;3539;47.982;12.238;2024-03-29T02:02:21;1.47;;;1.37;;
6997;SDS011;3539;47.982;12.238;2024-03-29T02:04:49;1.60;;;1.50;;
6997;SDS011;3539;47.982;12.238;2024-03-29T02:07:16;2.03;;;1.83;;
6997;SDS011;3539;47.982;12.238;2024-03-29T02:09:43;1.67;;;1.57;;
6997;SDS011;3539;47.982;12.238;2024-03-29T02:12:11;1.60;;;1.47;;
6997;SDS011;3539;47.982;12.238;2024-03-29T02:14:38;2.10;;;1.50;;
6997;SDS011;3539;47.982;12.238;2024-03-29T02:17:06;1.40;;;1.30;;
6997;SDS011;3539;47.982;12.238;2024-03-29T02:19:33;1.63;;;1.53;;
6997;SDS011;3539;47.982;12.238;2024-03-29T02:21:59;1.37;;;1.27;;
6997;SDS011;3539;47.982;12.238;2024-03-29T02:24:28;2.50;;;1.83;;
6997;SDS011;3539;47.982;12.238;2024-03-29T02:26:56;1.73;;;1.50;;
6997;SDS011;3539;47.982;12.238;2024-03-29T02:29:23;1.67;;;1.40;;
6997;SDS011;3539;47.982;12.238;2024-03-29T02:31:50;1.63;;;1.53;;
6997;SDS011;3539;47.982;12.238;2024-03-29T02:34:16;1.67;;;1.53;;
6997;SDS011;3539;47.982;12.238;2024-03-29T02:36:44;1.90;;;1.30;;
6997;SDS011;3539;47.982;12.238;2024-03-29T02:39:10;2.77;;;1.53;;
6997;SDS011;3539;47.982;12.238;2024-03-29T02:41:39;2.40;;;1.63;;
6997;SDS011;3539;47.982;12.238;2024-03-29T02:44:05;1.50;;;1.40;;
6997;SDS011;3539;47.982;12.238;2024-03-29T02:46:32;1.57;;;1.47;;
6997;SDS011;3539;47.982;12.238;2024-03-29T02:48:59;2.07;;;1.83;;
6997;SDS011;3539;47.982;12.238;2024-03-29T02:51:25;4.30;;;1.77;;
6997;SDS011;3539;47.982;12.238;2024-03-29T02:53:51;1.87;;;1.77;;
6997;SDS011;3539;47.982;12.238;2024-03-29T02:56:17;1.50;;;1.40;;
6997;SDS011;3539;47.982;12.238;2024-03-29T02:58:48;2.10;;;1.70;;
6997;SDS011;3539;47.982;12.238;2024-03-29T03:01:13;1.40;;;1.30;;
6997;SDS011;3539;47.982;12.238;2024-03-29T03:03:40;1.80;;;1.57;;
6997;SDS011;3539;47.982;12.238;2024-03-29T03:06:06;1.73;;;1.50;;
6997;SDS011;3539;47.982;12.238;2024-03-29T03:08:33;1.70;;;1.60;;
6997;SDS011;3539;47.982;12.238;2024-03-29T03:11:17;1.90;;;1.60;;
6997;SDS011;3539;47.982;12.238;2024-03-29T03:13:43;1.57;;;1.30;;
6997;SDS011;3539;47.982;12.238;2024-03-29T03:16:12;2.03;;;1.60;;
6997;SDS011;3539;47.982;12.238;2024-03-29T03:18:39;1.50;;;1.40;;
6997;SDS011;3539;47.982;12.238;2024-03-29T03:21:04;1.77;;;1.50;;
6997;SDS011;3539;47.982;12.238;2024-03-29T03:23:31;1.50;;;1.40;;
6997;SDS011;3539;47.982;12.238;2024-03-29T03:25:58;1.80;;;1.60;;
6997;SDS011;3539;47.982;12.238;2024-03-29T03:28:25;2.10;;;1.90;;
6997;SDS011;3539;47.982;12.238;2024-03-29T03:30:52;2.10;;;1.60;;
6997;SDS011;3539;47.982;12.238;2024-03-29T03:33:20;2.47;;;1.47;;
6997;SDS011;3539;47.982;12.238;2024-03-29T03:35:47;1.93;;;1.70;;
6997;SDS011;3539;47.982;12.238;2024-03-29T03:38:13;1.60;;;1.43;;
6997;SDS011;3539;47.982;12.238;2024-03-29T03:40:40;2.40;;;1.60;;
6997;SDS011;3539;47.982;12.238;2024-03-29T03:43:06;1.87;;;1.60;;
6997;SDS011;3539;47.982;12.238;2024-03-29T03:45:36;1.63;;;1.53;;
6997;SDS011;3539;47.982;12.238;2024-03-29T03:48:02;1.77;;;1.43;;
6997;SDS011;3539;47.982;12.238;2024-03-29T03:50:31;1.97;;;1.63;;
6997;SDS011;3539;47.982;12.238;2024-03-29T03:52:57;2.10;;;1.50;;
6997;SDS011;3539;47.982;12.238;2024-03-29T03:55:24;3.73;;;1.80;;
6997;SDS011;3539;47.982;12.238;2024-03-29T03:57:49;1.70;;;1.60;;
6997;SDS011;3539;47.982;12.238;2024-03-29T04:00:17;1.90;;;1.70;;
6997;SDS011;3539;47.982;12.238;2024-03-29T04:02:46;3.10;;;1.70;;
6997;SDS011;3539;47.982;12.238;2024-03-29T04:05:13;1.80;;;1.70;;
6997;SDS011;3539;47.982;12.238;2024-03-29T04:07:40;1.50;;;1.40;;
6997;SDS011;3539;47.982;12.238;2024-03-29T04:10:07;1.83;;;1.50;;
6997;SDS011;3539;47.982;12.238;2024-03-29T04:12:33;2.50;;;1.63;;
6997;SDS011;3539;47.982;12.238;2024-03-29T04:15:00;1.60;;;1.50;;
6997;SDS011;3539;47.982;12.238;2024-03-29T04:17:26;2.70;;;1.97;;
6997;SDS011;3539;47.982;12.238;2024-03-29T04:19:55;1.90;;;1.67;;
6997;SDS011;3539;47.982;12.238;2024-03-29T04:22:21;1.57;;;1.43;;
6997;SDS011;3539;47.982;12.238;2024-03-29T04:24:49;1.40;;;1.30;;
6997;SDS011;3539;47.982;12.238;2024-03-29T04:27:15;2.73;;;1.47;;
6997;SDS011;3539;47.982;12.238;2024-03-29T04:29:42;3.10;;;1.70;;
6997;SDS011;3539;47.982;12.238;2024-03-29T04:32:08;1.97;;;1.60;;
6997;SDS011;3539;47.982;12.238;2024-03-29T04:34:37;2.47;;;1.63;;
6997;SDS011;3539;47.982;12.238;2024-03-29T04:37:04;2.90;;;1.70;;
6997;SDS011;3539;47.982;12.238;2024-03-29T04:39:31;2.20;;;1.57;;
6997;SDS011;3539;47.982;12.238;2024-03-29T04:41:59;2.73;;;1.73;;
6997;SDS011;3539;47.982;12.238;2024-03-29T04:44:26;2.07;;;1.80;;
6997;SDS011;3539;47.982;12.238;2024-03-29T04:46:54;2.10;;;1.70;;
6997;SDS011;3539;47.982;12.238;2024-03-29T04:49:21;1.90;;;1.70;;
6997;SDS011;3539;47.982;12.238;2024-03-29T04:51:57;1.83;;;1.60;;
6997;SDS011;3539;47.982;12.238;2024-03-29T04:54:24;3.70;;;1.47;;
6997;SDS011;3539;47.982;12.238;2024-03-29T04:56:51;2.23;;;1.80;;
6997;SDS011;3539;47.982;12.238;2024-03-29T04:59:19;1.67;;;1.50;;
6997;SDS011;3539;47.982;12.238;2024-03-29T05:01:46;2.73;;;1.83;;
6997;SDS011;3539;47.982;12.238;2024-03-29T05:04:15;2.43;;;1.80;;
6997;SDS011;3539;47.982;12.238;2024-03-29T05:06:50;1.50;;;1.40;;
6997;SDS011;3539;47.982;12.238;2024-03-29T05:09:17;1.77;;;1.67;;
6997;SDS011;3539;47.982;12.238;2024-03-29T05:11:43;1.83;;;1.50;;
6997;SDS011;3539;47.982;12.238;2024-03-29T05:14:11;1.70;;;1.50;;
6997;SDS011;3539;47.982;12.238;2024-03-29T05:16:40;1.67;;;1.37;;
6997;SDS011;3539;47.982;12.238;2024-03-29T05:19:07;2.77;;;1.70;;
6997;SDS011;3539;47.982;12.238;2024-03-29T05:21:34;1.50;;;1.40;;
6997;SDS011;3539;47.982;12.238;2024-03-29T05:24:00;1.90;;;1.70;;
6997;SDS011;3539;47.982;12.238;2024-03-29T05:26:26;2.00;;;1.80;;
6997;SDS011;3539;47.982;12.238;2024-03-29T05:28:53;5.77;;;2.17;;
6997;SDS011;3539;47.982;12.238;2024-03-29T05:31:22;2.73;;;2.00;;
6997;SDS011;3539;47.982;12.238;2024-03-29T05:33:51;2.00;;;1.60;;
6997;SDS011;3539;47.982;12.238;2024-03-29T05:36:18;1.97;;;1.60;;
6997;SDS011;3539;47.982;12.238;2024-03-29T05:38:44;1.80;;;1.70;;
6997;SDS011;3539;47.982;12.238;2024-03-29T05:41:11;1.93;;;1.80;;
6997;SDS011;3539;47.982;12.238;2024-03-29T05:43:38;5.07;;;1.97;;
6997;SDS011;3539;47.982;12.238;2024-03-29T05:46:05;4.77;;;1.70;;
6997;SDS011;3539;47.982;12.238;2024-03-29T05:48:32;3.10;;;1.50;;
6997;SDS011;3539;47.982;12.238;2024-03-29T05:51:00;5.50;;;2.23;;
6997;SDS011;3539;47.982;12.238;2024-03-29T05:53:27;2.87;;;1.97;;
6997;SDS011;3539;47.982;12.238;2024-03-29T05:55:54;2.03;;;1.80;;
6997;SDS011;3539;47.982;12.238;2024-03-29T05:58:23;4.87;;;2.47;;
6997;SDS011;3539;47.982;12.238;2024-03-29T06:01:04;2.20;;;1.83;;
6997;SDS011;3539;47.982;12.238;2024-03-29T06:03:30;2.37;;;1.97;;
6997;SDS011;3539;47.982;12.238;2024-03-29T06:05:57;3.77;;;1.80;;
6997;SDS011;3539;47.982;12.238;2024-03-29T06:08:25;2.97;;;2.20;;
6997;SDS011;3539;47.982;12.238;2024-03-29T06:10:52;2.53;;;2.33;;
6997;SDS011;3539;47.982;12.238;2024-03-29T06:13:19;2.17;;;1.97;;
6997;SDS011;3539;47.982;12.238;2024-03-29T06:16:32;1.88;;;1.75;;
6997;SDS011;3539;47.982;12.238;2024-03-29T06:19:31;2.20;;;1.70;;
6997;SDS011;3539;47.982;12.238;2024-03-29T06:21:57;2.00;;;1.40;;
6997;SDS011;3539;47.982;12.238;2024-03-29T06:24:24;1.80;;;1.60;;
6997;SDS011;3539;47.982;12.238;2024-03-29T06:26:51;4.07;;;2.63;;
6997;SDS011;3539;47.982;12.238;2024-03-29T06:29:19;3.13;;;2.47;;
6997;SDS011;3539;47.982;12.238;2024-03-29T06:31:47;2.53;;;2.10;;
6997;SDS011;3539;47.982;12.238;2024-03-29T06:34:14;3.40;;;2.90;;
6997;SDS011;3539;47.982;12.238;2024-03-29T06:36:41;4.50;;;4.10;;
6997;SDS011;3539;47.982;12.238;2024-03-29T06:39:08;3.53;;;2.47;;
6997;SDS011;3539;47.982;12.238;2024-03-29T06:41:35;3.07;;;2.87;;
6997;SDS011;3539;47.982;12.238;2024-03-29T06:44:02;3.50;;;2.23;;
6997;SDS011;3539;47.982;12.238;2024-03-29T06:46:29;1.80;;;1.63;;
6997;SDS011;3539;47.982;12.238;2024-03-29T06:48:58;2.77;;;2.40;;
6997;SDS011;3539;47.982;12.238;2024-03-29T06:51:25;2.83;;;2.20;;
6997;SDS011;3539;47.982;12.238;2024-03-29T06:53:52;5.33;;;1.90;;
6997;SDS011;3539;47.982;12.238;2024-03-29T06:56:19;2.10;;;1.90;;
6997;SDS011;3539;47.982;12.238;2024-03-29T06:58:45;4.97;;;2.20;;
6997;SDS011;3539;47.982;12.238;2024-03-29T07:01:12;3.27;;;1.93;;
6997;SDS011;3539;47.982;12.238;2024-03-29T07:03:39;2.40;;;1.70;;
6997;SDS011;3539;47.982;12.238;2024-03-29T07:06:07;4.17;;;2.73;;
6997;SDS011;3539;47.982;12.238;2024-03-29T07:08:34;2.37;;;1.90;;
6997;SDS011;3539;47.982;12.238;2024-03-29T07:11:01;1.90;;;1.60;;
6997;SDS011;3539;47.982;12.238;2024-03-29T07:13:29;3.37;;;2.50;;
6997;SDS011;3539;47.982;12.238;2024-03-29T07:15:56;3.27;;;2.40;;
6997;SDS011;3539;47.982;12.238;2024-03-29T07:18:23;2.20;;;2.00;;
6997;SDS011;3539;47.982;12.238;2024-03-29T07:20:50;1.60;;;1.50;;
6997;SDS011;3539;47.982;12.238;2024-03-29T07:23:18;3.23;;;1.53;;
6997;SDS011;3539;47.982;12.238;2024-03-29T07:25:46;2.33;;;1.70;;
6997;SDS011;3539;47.982;12.238;2024-03-29T07:28:23;2.53;;;2.20;;
6997;SDS011;3539;47.982;12.238;2024-03-29T07:30:50;2.40;;;2.20;;
6997;SDS011;3539;47.982;12.238;2024-03-29T07:33:18;2.20;;;1.87;;
6997;SDS011;3539;47.982;12.238;2024-03-29T07:35:46;2.10;;;2.00;;
6997;SDS011;3539;47.982;12.238;2024-03-29T07:38:13;2.30;;;2.10;;
6997;SDS011;3539;47.982;12.238;2024-03-29T07:40:41;2.60;;;2.40;;
6997;SDS011;3539;47.982;12.238;2024-03-29T07:43:08;2.57;;;2.00;;
6997;SDS011;3539;47.982;12.238;2024-03-29T07:45:38;2.10;;;1.90;;
6997;SDS011;3539;47.982;12.238;2024-03-29T07:48:06;2.00;;;1.80;;
6997;SDS011;3539;47.982;12.238;2024-03-29T07:50:33;2.00;;;1.80;;
6997;SDS011;3539;47.982;12.238;2024-03-29T07:53:01;2.00;;;1.80;;
6997;SDS011;3539;47.982;12.238;2024-03-29T07:55:28;4.50;;;2.87;;
6997;SDS011;3539;47.982;12.238;2024-03-29T07:57:56;4.83;;;2.80;;
6997;SDS011;3539;47.982;12.238;2024-03-29T08:00:23;1.90;;;1.57;;
6997;SDS011;3539;47.982;12.238;2024-03-29T08:02:50;2.30;;;1.40;;
6997;SDS011;3539;47.982;12.238;2024-03-29T08:05:18;1.60;;;1.50;;
6997;SDS011;3539;47.982;12.238;2024-03-29T08:07:45;2.10;;;1.60;;
6997;SDS011;3539;47.982;12.238;2024-03-29T08:10:12;1.50;;;1.40;;
6997;SDS011;3539;47.982;12.238;2024-03-29T08:12:39;2.10;;;1.20;;
6997;SDS011;3539;47.982;12.238;2024-03-29T08:15:07;1.23;;;1.10;;
6997;SDS011;3539;47.982;12.238;2024-03-29T08:17:34;1.60;;;1.50;;
6997;SDS011;3539;47.982;12.238;2024-03-29T08:20:01;1.23;;;1.13;;
6997;SDS011;3539;47.982;12.238;2024-03-29T08:22:28;1.23;;;1.03;;
6997;SDS011;3539;47.982;12.238;2024-03-29T08:24:58;1.77;;;1.20;;
6997;SDS011;3539;47.982;12.238;2024-03-29T08:27:25;1.20;;;1.10;;
6997;SDS011;3539;47.982;12.238;2024-03-29T08:29:52;1.40;;;1.23;;
6997;SDS011;3539;47.982;12.238;2024-03-29T08:32:21;1.20;;;1.10;;
6997;SDS011;3539;47.982;12.238;2024-03-29T08:34:47;1.20;;;1.10;;
6997;SDS011;3539;47.982;12.238;2024-03-29T08:37:14;1.87;;;0.90;;
6997;SDS011;3539;47.982;12.238;2024-03-29T08:39:42;1.37;;;1.27;;
6997;SDS011;3539;47.982;12.238;2024-03-29T08:42:09;1.73;;;1.17;;
6997;SDS011;3539;47.982;12.238;2024-03-29T08:44:36;1.23;;;1.13;;
6997;SDS011;3539;47.982;12.238;2024-03-29T08:47:04;1.47;;;1.23;;
6997;SDS011;3539;47.982;12.238;2024-03-29T08:49:32;1.20;;;1.07;;
6997;SDS011;3539;47.982;12.238;2024-03-29T08:51:59;1.53;;;1.03;;
6997;SDS011;3539;47.982;12.238;2024-03-29T08:54:30;1.07;;;0.80;;
6997;SDS011;3539;47.982;12.238;2024-03-29T08:56:57;2.07;;;0.73;;
6997;SDS011;3539;47.982;12.238;2024-03-29T08:59:24;1.20;;;0.70;;
6997;SDS011;3539;47.982;12.238;2024-03-29T09:01:53;2.17;;;0.90;;
6997;SDS011;3539;47.982;12.238;2024-03-29T09:04:20;0.93;;;0.83;;
6997;SDS011;3539;47.982;12.238;2024-03-29T09:06:48;1.63;;;0.70;;
6997;SDS011;3539;47.982;12.238;2024-03-29T09:09:15;1.63;;;0.60;;
6997;SDS011;3539;47.982;12.238;2024-03-29T09:11:42;1.00;;;0.70;;
6997;SDS011;3539;47.982;12.238;2024-03-29T09:14:08;1.33;;;0.77;;
6997;SDS011;3539;47.982;12.238;2024-03-29T09:16:37;0.87;;;0.70;;
6997;SDS011;3539;47.982;12.238;2024-03-29T09:19:05;2.50;;;1.00;;
6997;SDS011;3539;47.982;12.238;2024-03-29T09:21:32;0.53;;;0.53;;
6997;SDS011;3539;47.982;12.238;2024-03-29T09:24:00;0.50;;;0.50;;
6997;SDS011;3539;47.982;12.238;2024-03-29T09:26:27;1.30;;;0.77;;
6997;SDS011;3539;47.982;12.238;2024-03-29T09:28:54;0.77;;;0.63;;
6997;SDS011;3539;47.982;12.238;2024-03-29T09:31:20;1.57;;;0.80;;
6997;SDS011;3539;47.982;12.238;2024-03-29T09:33:47;0.80;;;0.80;;
6997;SDS011;3539;47.982;12.238;2024-03-29T09:36:19;1.47;;;0.73;;
6997;SDS011;3539;47.982;12.238;2024-03-29T09:38:48;0.83;;;0.80;;
6997;SDS011;3539;47.982;12.238;2024-03-29T09:41:17;3.80;;;2.47;;
6997;SDS011;3539;47.982;12.238;2024-03-29T09:43:46;2.13;;;1.60;;
6997;SDS011;3539;47.982;12.238;2024-03-29T09:46:14;1.90;;;1.00;;
6997;SDS011;3539;47.982;12.238;2024-03-29T09:48:41;1.97;;;0.90;;
6997;SDS011;3539;47.982;12.238;2024-03-29T09:51:11;2.87;;;2.30;;
6997;SDS011;3539;47.982;12.238;2024-03-29T09:53:40;2.17;;;1.07;;
6997;SDS011;3539;47.982;12.238;2024-03-29T09:56:07;1.10;;;1.00;;
6997;SDS011;3539;47.982;12.238;2024-03-29T09:58:36;1.03;;;0.90;;
6997;SDS011;3539;47.982;12.238;2024-03-29T10:01:04;1.60;;;0.93;;
6997;SDS011;3539;47.982;12.238;2024-03-29T10:03:32;4.63;;;4.33;;
6997;SDS011;3539;47.982;12.238;2024-03-29T10:06:01;3.80;;;3.50;;
6997;SDS011;3539;47.982;12.238;2024-03-29T10:08:28;1.23;;;1.13;;
6997;SDS011;3539;47.982;12.238;2024-03-29T10:10:56;1.07;;;0.90;;
6997;SDS011;3539;47.982;12.238;2024-03-29T10:13:23;1.10;;;1.00;;
6997;SDS011;3539;47.982;12.238;2024-03-29T10:15:52;1.60;;;1.17;;
6997;SDS011;3539;47.982;12.238;2024-03-29T10:18:20;1.43;;;1.30;;
6997;SDS011;3539;47.982;12.238;2024-03-29T10:20:57;2.90;;;2.50;;
6997;SDS011;3539;47.982;12.238;2024-03-29T10:23:24;3.20;;;1.40;;
6997;SDS011;3539;47.982;12.238;2024-03-29T10:25:51;1.30;;;1.20;;
6997;SDS011;3539;47.982;12.238;2024-03-29T10:28:18;1.30;;;1.20;;
6997;SDS011;3539;47.982;12.238;2024-03-29T10:30:45;2.40;;;1.37;;
6997;SDS011;3539;47.982;12.238;2024-03-29T10:33:13;1.37;;;1.17;;
6997;SDS011;3539;47.982;12.238;2024-03-29T10:35:41;1.53;;;1.00;;
6997;SDS011;3539;47.982;12.238;2024-03-29T10:38:08;1.37;;;0.90;;
6997;SDS011;3539;47.982;12.238;2024-03-29T10:40:36;1.30;;;1.10;;
6997;SDS011;3539;47.982;12.238;2024-03-29T10:43:06;2.37;;;1.03;;
6997;SDS011;3539;47.982;12.238;2024-03-29T10:45:37;1.80;;;0.90;;
6997;SDS011;3539;47.982;12.238;2024-03-29T10:48:04;0.73;;;0.70;;
6997;SDS011;3539;47.982;12.238;2024-03-29T10:50:35;1.53;;;0.70;;
6997;SDS011;3539;47.982;12.238;2024-03-29T10:53:04;2.63;;;1.00;;
6997;SDS011;3539;47.982;12.238;2024-03-29T10:55:32;1.33;;;0.73;;
6997;SDS011;3539;47.982;12.238;2024-03-29T10:58:00;0.93;;;0.83;;
6997;SDS011;3539;47.982;12.238;2024-03-29T11:00:28;1.73;;;0.77;;
6997;SDS011;3539;47.982;12.238;2024-03-29T11:02:57;1.17;;;0.93;;
6997;SDS011;3539;47.982;12.238;2024-03-29T11:05:28;1.17;;;0.87;;
6997;SDS011;3539;47.982;12.238;2024-03-29T11:07:57;0.60;;;0.60;;
6997;SDS011;3539;47.982;12.238;2024-03-29T11:10:26;1.17;;;0.80;;
6997;SDS011;3539;47.982;12.238;2024-03-29T11:12:58;1.13;;;0.80;;
6997;SDS011;3539;47.982;12.238;2024-03-29T11:15:29;1.10;;;0.70;;
6997;SDS011;3539;47.982;12.238;2024-03-29T11:17:56;1.37;;;1.00;;
6997;SDS011;3539;47.982;12.238;2024-03-29T11:20:24;1.13;;;1.03;;
6997;SDS011;3539;47.982;12.238;2024-03-29T11:23:01;1.10;;;1.00;;
6997;SDS011;3539;47.982;12.238;2024-03-29T11:25:38;0.60;;;0.60;;
6997;SDS011;3539;47.982;12.238;2024-03-29T11:28:08;0.60;;;0.60;;
6997;SDS011;3539;47.982;12.238;2024-03-29T11:30:42;1.03;;;0.73;;
6997;SDS011;3539;47.982;12.238;2024-03-29T11:35:51;1.47;;;1.20;;
6997;SDS011;3539;47.982;12.238;2024-03-29T11:38:20;2.13;;;1.93;;
6997;SDS011;3539;47.982;12.238;2024-03-29T11:40:53;2.63;;;0.90;;
6997;SDS011;3539;47.982;12.238;2024-03-29T11:43:20;0.73;;;0.70;;
6997;SDS011;3539;47.982;12.238;2024-03-29T11:45:47;0.93;;;0.70;;
6997;SDS011;3539;47.982;12.238;2024-03-29T11:48:17;1.77;;;1.00;;
6997;SDS011;3539;47.982;12.238;2024-03-29T11:50:47;2.20;;;1.13;;
6997;SDS011;3539;47.982;12.238;2024-03-29T11:53:14;1.33;;;0.80;;
6997;SDS011;3539;47.982;12.238;2024-03-29T11:55:42;2.27;;;1.00;;
6997;SDS011;3539;47.982;12.238;2024-03-29T11:58:08;1.13;;;0.80;;
6997;SDS011;3539;47.982;12.238;2024-03-29T12:00:36;1.30;;;1.00;;
6997;SDS011;3539;47.982;12.238;2024-03-29T12:03:04;2.90;;;1.00;;
6997;SDS011;3539;47.982;12.238;2024-03-29T12:05:31;1.43;;;0.97;;
6997;SDS011;3539;47.982;12.238;2024-03-29T12:07:58;1.37;;;0.87;;
6997;SDS011;3539;47.982;12.238;2024-03-29T12:10:26;0.87;;;0.60;;
6997;SDS011;3539;47.982;12.238;2024-03-29T12:12:57;0.50;;;0.40;;
6997;SDS011;3539;47.982;12.238;2024-03-29T12:15:24;0.40;;;0.40;;
6997;SDS011;3539;47.982;12.238;2024-03-29T12:17:54;0.30;;;0.30;;
6997;SDS011;3539;47.982;12.238;2024-03-29T12:20:21;0.33;;;0.33;;
6997;SDS011;3539;47.982;12.238;2024-03-29T12:22:48;0.30;;;0.30;;
6997;SDS011;3539;47.982;12.238;2024-03-29T12:25:15;0.37;;;0.30;;
6997;SDS011;3539;47.982;12.238;2024-03-29T12:27:42;0.40;;;0.40;;
6997;SDS011;3539;47.982;12.238;2024-03-29T12:30:11;1.13;;;0.47;;
6997;SDS011;3539;47.982;12.238;2024-03-29T12:32:39;1.03;;;0.30;;
6997;SDS011;3539;47.982;12.238;2024-03-29T12:35:07;0.30;;;0.30;;
6997;SDS011;3539;47.982;12.238;2024-03-29T12:37:34;0.40;;;0.40;;
6997;SDS011;3539;47.982;12.238;2024-03-29T12:40:01;0.40;;;0.40;;
6997;SDS011;3539;47.982;12.238;2024-03-29T12:42:36;0.30;;;0.30;;
6997;SDS011;3539;47.982;12.238;2024-03-29T12:45:03;0.30;;;0.30;;
6997;SDS011;3539;47.982;12.238;2024-03-29T12:47:32;0.40;;;0.40;;
6997;SDS011;3539;47.982;12.238;2024-03-29T12:50:00;0.30;;;0.30;;
6997;SDS011;3539;47.982;12.238;2024-03-29T12:52:35;0.70;;;0.70;;
6997;SDS011;3539;47.982;12.238;2024-03-29T12:55:03;1.43;;;0.53;;
6997;SDS011;3539;47.982;12.238;2024-03-29T12:57:32;0.30;;;0.30;;
6997;SDS011;3539;47.982;12.238;2024-03-29T12:59:59;0.50;;;0.50;;
6997;SDS011;3539;47.982;12.238;2024-03-29T13:02:26;0.30;;;0.30;;
6997;SDS011;3539;47.982;12.238;2024-03-29T13:04:54;0.30;;;0.30;;
6997;SDS011;3539;47.982;12.238;2024-03-29T13:07:21;1.07;;;0.97;;
6997;SDS011;3539;47.982;12.238;2024-03-29T13:09:48;1.30;;;1.20;;
6997;SDS011;3539;47.982;12.238;2024-03-29T13:12:15;1.67;;;1.43;;
6997;SDS011;3539;47.982;12.238;2024-03-29T13:14:41;2.27;;;2.07;;
6997;SDS011;3539;47.982;12.238;2024-03-29T13:17:08;1.03;;;0.50;;
6997;SDS011;3539;47.982;12.238;2024-03-29T13:19:35;1.43;;;0.40;;
6997;SDS011;3539;47.982;12.238;2024-03-29T13:22:03;1.27;;;0.50;;
6997;SDS011;3539;47.982;12.238;2024-03-29T13:24:31;0.73;;;0.73;;
6997;SDS011;3539;47.982;12.238;2024-03-29T13:26:58;0.67;;;0.67;;
6997;SDS011;3539;47.982;12.238;2024-03-29T13:29:25;2.23;;;1.70;;
6997;SDS011;3539;47.982;12.238;2024-03-29T13:31:52;1.10;;;1.00;;
6997;SDS011;3539;47.982;12.238;2024-03-29T13:34:18;0.57;;;0.57;;
6997;SDS011;3539;47.982;12.238;2024-03-29T13:36:45;0.50;;;0.50;;
6997;SDS011;3539;47.982;12.238;2024-03-29T13:39:14;0.47;;;0.30;;
6997;SDS011;3539;47.982;12.238;2024-03-29T13:41:41;0.57;;;0.57;;
6997;SDS011;3539;47.982;12.238;2024-03-29T13:44:08;0.30;;;0.30;;
6997;SDS011;3539;47.982;12.238;2024-03-29T13:46:35;0.30;;;0.30;;
6997;SDS011;3539;47.982;12.238;2024-03-29T13:49:02;0.40;;;0.40;;
6997;SDS011;3539;47.982;12.238;2024-03-29T13:51:29;1.13;;;0.40;;
6997;SDS011;3539;47.982;12.238;2024-03-29T13:53:56;1.60;;;0.30;;
6997;SDS011;3539;47.982;12.238;2024-03-29T13:56:25;0.17;;;0.17;;
6997;SDS011;3539;47.982;12.238;2024-03-29T13:58:52;0.20;;;0.20;;
6997;SDS011;3539;47.982;12.238;2024-03-29T14:01:18;0.10;;;0.10;;
6997;SDS011;3539;47.982;12.238;2024-03-29T14:03:45;0.23;;;0.23;;
6997;SDS011;3539;47.982;12.238;2024-03-29T14:06:12;1.00;;;0.40;;
6997;SDS011;3539;47.982;12.238;2024-03-29T14:08:37;0.33;;;0.33;;
6997;SDS011;3539;47.982;12.238;2024-03-29T14:11:04;0.20;;;0.20;;
6997;SDS011;3539;47.982;12.238;2024-03-29T14:13:32;0.77;;;0.77;;
6997;SDS011;3539;47.982;12.238;2024-03-29T14:15:59;0.90;;;0.80;;
6997;SDS011;3539;47.982;12.238;2024-03-29T14:18:26;1.80;;;0.40;;
6997;SDS011;3539;47.982;12.238;2024-03-29T14:20:53;0.50;;;0.50;;
6997;SDS011;3539;47.982;12.238;2024-03-29T14:23:19;0.50;;;0.50;;
6997;SDS011;3539;47.982;12.238;2024-03-29T14:25:48;1.20;;;0.50;;
6997;SDS011;3539;47.982;12.238;2024-03-29T14:28:15;0.30;;;0.30;;
6997;SDS011;3539;47.982;12.238;2024-03-29T14:30:43;0.40;;;0.30;;
6997;SDS011;3539;47.982;12.238;2024-03-29T14:33:09;0.40;;;0.20;;
6997;SDS011;3539;47.982;12.238;2024-03-29T14:35:36;0.20;;;0.20;;
6997;SDS011;3539;47.982;12.238;2024-03-29T14:38:03;1.10;;;0.37;;
6997;SDS011;3539;47.982;12.238;2024-03-29T14:40:30;0.53;;;0.40;;
6997;SDS011;3539;47.982;12.238;2024-03-29T14:42:57;0.37;;;0.37;;
6997;SDS011;3539;47.982;12.238;2024-03-29T14:45:24;0.20;;;0.20;;
6997;SDS011;3539;47.982;12.238;2024-03-29T14:47:52;0.33;;;0.33;;
6997;SDS011;3539;47.982;12.238;2024-03-29T14:50:19;0.30;;;0.30;;
6997;SDS011;3539;47.982;12.238;2024-03-29T14:52:46;0.20;;;0.20;;
6997;SDS011;3539;47.982;12.238;2024-03-29T14:55:13;0.40;;;0.40;;
6997;SDS011;3539;47.982;12.238;2024-03-29T14:57:39;0.30;;;0.30;;
6997;SDS011;3539;47.982;12.238;2024-03-29T15:00:06;0.40;;;0.40;;
6997;SDS011;3539;47.982;12.238;2024-03-29T15:02:35;0.27;;;0.27;;
6997;SDS011;3539;47.982;12.238;2024-03-29T15:05:03;0.70;;;0.37;;